Time;durP1;ratioP1;P1;durP2;ratioP2;P2;SDS_P1;SDS_P2;PMS_P1;PMS_P2;Temp;Humidity;BMP_temperature;BMP_pressure;BME280_temperature;BME280_humidity;BME280_pressure;Samples;Min_cycle;Max_cycle;Signal;HPM_P1;HPM_P2
2022/05/15 00:01:42;;;;;;;10.68;4.60;;;;;;;22.08;43.77;102237.31;5081951;28;20051;-59
2022/05/15 00:04:09;;;;;;;10.88;4.35;;;;;;;22.07;43.77;102238.31;5086184;28;20097;-58
2022/05/15 00:06:35;;;;;;;9.73;4.80;;;;;;;22.06;44.16;102244.69;5084100;28;20055;-59
2022/05/15 00:09:02;;;;;;;12.15;4.78;;;;;;;22.06;44.20;102246.53;5085618;28;20040;-58
2022/05/15 00:11:29;;;;;;;13.43;4.93;;;;;;;22.04;43.96;102241.28;5083745;28;20451;-59
2022/05/15 00:13:57;;;;;;;12.07;4.22;;;;;;;22.03;44.09;102238.72;5082782;28;20050;-57
2022/05/15 00:16:24;;;;;;;10.60;4.82;;;;;;;22.02;44.30;102239.72;5082955;28;20139;-57
2022/05/15 00:18:51;;;;;;;15.43;4.30;;;;;;;22.01;44.33;102230.78;5082973;28;20054;-58
2022/05/15 00:21:18;;;;;;;11.05;4.15;;;;;;;22.00;44.16;102234.47;5083518;28;20046;-58
2022/05/15 00:23:44;;;;;;;17.80;4.97;;;;;;;21.99;44.52;102227.38;5084603;28;20044;-59
2022/05/15 00:26:11;;;;;;;11.57;5.32;;;;;;;21.98;44.55;102225.66;5084679;28;20127;-58
2022/05/15 00:28:38;;;;;;;11.32;5.18;;;;;;;21.99;44.27;102226.50;5085774;28;20046;-59
2022/05/15 00:31:05;;;;;;;9.77;4.47;;;;;;;21.97;44.19;102228.53;5089197;28;20058;-58
2022/05/15 00:33:32;;;;;;;14.15;5.05;;;;;;;21.95;44.47;102223.28;5080968;28;20438;-58
2022/05/15 00:35:58;;;;;;;11.98;4.63;;;;;;;21.95;44.46;102220.56;5086818;28;20052;-58
2022/05/15 00:38:25;;;;;;;10.27;4.20;;;;;;;21.94;44.48;102221.56;5080830;28;20052;-58
2022/05/15 00:40:52;;;;;;;11.60;4.40;;;;;;;21.94;44.42;102219.69;5084194;28;20058;-58
2022/05/15 00:43:37;;;;;;;10.20;4.18;;;;;;;21.91;44.74;102217.31;5081277;28;20582;-59
2022/05/15 00:46:05;;;;;;;13.02;4.75;;;;;;;21.90;44.71;102218.28;5081013;28;20341;-58
2022/05/15 00:48:33;;;;;;;10.35;4.35;;;;;;;21.90;44.68;102217.44;5079574;28;20322;-58
2022/05/15 00:51:05;;;;;;;11.18;4.70;;;;;;;21.89;44.64;102221.16;5083742;28;20147;-59
2022/05/15 00:53:34;;;;;;;12.55;4.53;;;;;;;21.88;44.90;102214.91;5083241;28;20502;-58
2022/05/15 00:56:02;;;;;;;9.35;4.18;;;;;;;21.85;44.74;102214.34;5084447;28;20426;-58
2022/05/15 00:58:33;;;;;;;13.77;5.13;;;;;;;21.83;44.95;102213.63;5081591;28;20062;-57
2022/05/15 01:00:59;;;;;;;12.70;4.75;;;;;;;21.83;44.72;102210.91;5084451;28;20070;-58
2022/05/15 01:03:26;;;;;;;12.00;4.13;;;;;;;21.82;44.99;102211.94;5082534;28;20044;-58
2022/05/15 01:05:54;;;;;;;13.75;4.50;;;;;;;21.81;44.74;102212.94;5084881;28;20046;-58
2022/05/15 01:08:23;;;;;;;8.20;3.47;;;;;;;21.80;45.06;102208.53;5082438;28;20346;-58
2022/05/15 01:10:53;;;;;;;11.93;4.85;;;;;;;21.77;44.90;102215.06;5082850;28;20123;-58
2022/05/15 01:13:29;;;;;;;10.73;4.60;;;;;;;21.78;45.16;102222.16;5081748;28;20376;-58
2022/05/15 01:15:56;;;;;;;10.73;4.50;;;;;;;21.76;45.00;102217.91;5083371;28;20045;-59
2022/05/15 01:18:26;;;;;;;10.77;3.85;;;;;;;21.76;45.21;102215.22;5080428;28;20331;-58
2022/05/15 01:20:58;;;;;;;13.75;4.85;;;;;;;21.74;45.17;102214.50;5085568;28;20116;-58
2022/05/15 01:23:24;;;;;;;10.15;4.25;;;;;;;21.74;45.06;102214.50;5081823;28;20052;-58
2022/05/15 01:25:51;;;;;;;9.93;4.20;;;;;;;21.73;45.09;102219.03;5082524;28;20044;-58
2022/05/15 01:28:21;;;;;;;10.15;3.90;;;;;;;21.72;45.35;102213.81;5089330;28;20260;-58
2022/05/15 01:30:51;;;;;;;10.18;4.22;;;;;;;21.71;45.42;102212.09;5089906;28;20131;-58
2022/05/15 01:33:18;;;;;;;10.85;4.10;;;;;;;21.70;45.40;102208.53;5090369;28;20132;-58
2022/05/15 01:35:45;;;;;;;8.48;4.20;;;;;;;21.69;45.15;102210.38;5086255;28;20044;-59
2022/05/15 01:38:11;;;;;;;9.45;3.40;;;;;;;21.68;45.37;102211.38;5084919;28;20040;-57
2022/05/15 01:40:39;;;;;;;12.18;4.03;;;;;;;21.68;45.64;102214.09;5090215;28;20048;-58
2022/05/15 01:43:07;;;;;;;11.57;4.50;;;;;;;21.67;45.56;102211.53;5086853;28;20065;-58
2022/05/15 01:45:35;;;;;;;9.70;3.67;;;;;;;21.65;45.57;102208.97;5089140;28;20040;-59
2022/05/15 01:48:02;;;;;;;12.25;4.45;;;;;;;21.66;45.51;102209.81;5087928;28;20048;-58
2022/05/15 01:50:29;;;;;;;10.13;4.72;;;;;;;21.64;45.61;102207.28;5085571;28;20052;-59
2022/05/15 01:52:55;;;;;;;9.45;4.00;;;;;;;21.65;45.68;102206.28;5082367;28;20512;-58
2022/05/15 01:55:22;;;;;;;8.73;3.58;;;;;;;21.64;45.50;102206.44;5087834;28;20051;-58
2022/05/15 01:57:48;;;;;;;10.85;4.03;;;;;;;21.63;45.40;102208.28;5086794;28;20042;-58
2022/05/15 02:00:23;;;;;;;9.60;4.00;;;;;;;21.62;45.54;102198.47;5085951;28;20364;-58
2022/05/15 02:02:50;;;;;;;9.07;3.60;;;;;;;21.61;45.43;102206.72;5088320;28;20545;-58
2022/05/15 02:05:19;;;;;;;10.35;4.05;;;;;;;21.60;45.51;102194.22;5088272;28;20046;-58
2022/05/15 02:07:47;;;;;;;10.68;3.38;;;;;;;21.59;45.95;102193.38;5082624;28;20160;-59
2022/05/15 02:10:15;;;;;;;11.18;3.67;;;;;;;21.60;45.74;102199.63;5085807;28;20040;-58
2022/05/15 02:12:43;;;;;;;13.55;4.15;;;;;;;21.57;45.95;102194.50;5082662;28;20053;-58
2022/05/15 02:15:10;;;;;;;7.65;3.58;;;;;;;21.56;45.97;102198.19;5086805;28;20052;-58
2022/05/15 02:17:37;;;;;;;10.32;4.03;;;;;;;21.56;45.59;102204.44;5087203;28;20039;-58
2022/05/15 02:20:05;;;;;;;10.18;3.90;;;;;;;21.56;45.99;102206.31;5086409;28;20078;-58
2022/05/15 02:22:32;;;;;;;7.93;3.35;;;;;;;21.54;45.78;102194.78;5082286;28;20044;-59
2022/05/15 02:24:58;;;;;;;8.02;3.90;;;;;;;21.52;45.99;102192.25;5086678;28;20055;-58
2022/05/15 02:27:26;;;;;;;9.32;3.42;;;;;;;21.51;45.86;102195.06;5086254;28;20058;-58
2022/05/15 02:29:52;;;;;;;9.27;3.80;;;;;;;21.51;46.16;102190.56;5086850;28;20044;-58
2022/05/15 02:32:19;;;;;;;5.63;2.95;;;;;;;21.49;45.96;102192.53;5090589;28;20147;-59
2022/05/15 02:34:45;;;;;;;8.40;3.90;;;;;;;21.49;45.99;102187.13;5085780;28;20071;-59
2022/05/15 02:37:12;;;;;;;8.98;4.05;;;;;;;21.48;46.31;102190.81;5086548;28;20345;-59
2022/05/15 02:39:39;;;;;;;8.73;3.38;;;;;;;21.46;46.29;102198.19;5082041;28;20047;-58
2022/05/15 02:42:05;;;;;;;6.60;3.17;;;;;;;21.47;46.50;102197.22;5087608;28;20053;-59
2022/05/15 02:44:32;;;;;;;8.32;3.13;;;;;;;21.45;45.92;102193.81;5084104;28;20054;-58
2022/05/15 02:46:58;;;;;;;8.07;3.40;;;;;;;21.44;46.01;102190.25;5086821;28;20052;-59
2022/05/15 02:52:10;;;;;;;8.50;3.22;;;;;;;21.41;46.26;102193.25;5086622;28;20494;-58
2022/05/15 02:54:37;;;;;;;7.25;3.47;;;;;;;21.42;45.97;102194.09;5086986;28;20052;-58
2022/05/15 02:57:06;;;;;;;9.38;3.50;;;;;;;21.42;46.30;102196.78;5086153;28;20047;-58
2022/05/15 02:59:34;;;;;;;8.30;3.40;;;;;;;21.40;46.39;102188.00;5085696;28;20040;-56
2022/05/15 03:02:01;;;;;;;13.00;4.15;;;;;;;21.40;46.35;102193.38;5088842;28;20089;-57
2022/05/15 03:04:28;;;;;;;10.45;3.75;;;;;;;21.39;46.22;102197.09;5087730;28;20406;-57
2022/05/15 03:06:54;;;;;;;9.82;3.53;;;;;;;21.39;46.32;102183.59;5090883;28;20040;-58
2022/05/15 03:09:21;;;;;;;6.57;3.08;;;;;;;21.37;46.27;102172.09;5087701;28;20035;-58
2022/05/15 03:11:48;;;;;;;10.07;3.45;;;;;;;21.36;46.45;102175.78;5085160;28;20282;-57
2022/05/15 03:14:14;;;;;;;9.90;4.20;;;;;;;21.34;46.17;102170.53;5086089;28;20619;-58
2022/05/15 03:16:41;;;;;;;10.05;3.42;;;;;;;21.34;46.55;102170.53;5088719;28;20040;-58
2022/05/15 03:19:07;;;;;;;8.52;3.00;;;;;;;21.33;46.57;102168.81;5086686;28;20040;-58
2022/05/15 03:21:34;;;;;;;7.18;3.60;;;;;;;21.33;46.72;102167.97;5085929;28;20403;-58
2022/05/15 03:24:11;;;;;;;6.57;3.58;;;;;;;21.31;46.60;102167.25;5082956;28;20335;-57
2022/05/15 03:26:41;;;;;;;9.60;3.60;;;;;;;21.31;46.43;102164.56;5084752;28;20043;-58
2022/05/15 03:29:08;;;;;;;8.98;3.67;;;;;;;21.29;46.58;102161.13;5082776;28;20063;-57
2022/05/15 03:31:35;;;;;;;8.52;3.28;;;;;;;21.30;46.24;102157.44;5087323;28;20074;-58
2022/05/15 03:34:03;;;;;;;7.72;2.53;;;;;;;21.27;46.71;102165.84;5081966;28;20126;-58
2022/05/15 03:36:30;;;;;;;8.55;3.40;;;;;;;21.25;46.46;102167.81;5086116;28;20402;-58
2022/05/15 03:38:57;;;;;;;11.20;3.75;;;;;;;21.25;46.80;102163.25;5083992;28;20780;-58
2022/05/15 03:41:23;;;;;;;8.73;3.25;;;;;;;21.24;46.98;102158.03;5084811;28;20056;-57
2022/05/15 03:43:50;;;;;;;7.50;3.33;;;;;;;21.23;47.29;102150.91;5084289;28;20052;-57
2022/05/15 03:46:16;;;;;;;6.85;2.97;;;;;;;21.20;46.69;102161.00;5086940;28;20065;-57
2022/05/15 03:48:43;;;;;;;8.40;3.38;;;;;;;21.19;46.76;102151.22;5082619;28;20040;-58
2022/05/15 03:51:10;;;;;;;7.80;3.35;;;;;;;21.19;46.97;102148.53;5085633;28;20631;-56
2022/05/15 03:53:37;;;;;;;8.57;3.28;;;;;;;21.18;46.89;102144.09;5081861;28;20122;-58
2022/05/15 03:56:05;;;;;;;9.18;3.88;;;;;;;21.17;47.11;102138.88;5085666;28;20127;-57
2022/05/15 03:58:35;;;;;;;7.07;2.88;;;;;;;21.16;47.08;102146.09;5082826;28;20046;-57
2022/05/15 04:01:02;;;;;;;9.48;3.30;;;;;;;21.17;46.93;102138.88;5085852;28;20902;-57
2022/05/15 04:03:28;;;;;;;8.50;2.95;;;;;;;21.16;46.77;102147.94;5080836;28;20127;-58
2022/05/15 04:05:55;;;;;;;6.55;3.00;;;;;;;21.14;46.81;102144.53;5086178;28;20044;-58
2022/05/15 04:08:21;;;;;;;7.15;3.60;;;;;;;21.13;47.12;102148.22;5083365;28;20040;-57
2022/05/15 04:10:48;;;;;;;11.80;3.30;;;;;;;21.13;47.00;102148.22;5083577;28;20124;-58
2022/05/15 04:13:15;;;;;;;8.95;3.53;;;;;;;21.11;46.98;102148.38;5084938;28;20058;-57
2022/05/15 04:15:41;;;;;;;11.25;3.70;;;;;;;21.12;47.14;102150.06;5086966;28;20051;-58
2022/05/15 04:18:09;;;;;;;9.43;3.13;;;;;;;21.11;47.14;102147.53;5080186;28;20037;-57
2022/05/15 04:20:36;;;;;;;9.05;3.42;;;;;;;21.10;46.89;102151.19;5084708;28;20051;-58
2022/05/15 04:23:03;;;;;;;7.47;2.55;;;;;;;21.09;47.31;102155.75;5082331;28;20423;-58
2022/05/15 04:25:30;;;;;;;9.13;3.00;;;;;;;21.09;46.93;102158.44;5081828;28;20052;-57
2022/05/15 04:27:56;;;;;;;8.68;2.92;;;;;;;21.10;46.98;102148.50;5084412;28;20048;-58
2022/05/15 04:30:26;;;;;;;7.50;2.75;;;;;;;21.09;46.88;102144.13;5084949;28;20047;-57
2022/05/15 04:32:53;;;;;;;8.77;3.10;;;;;;;21.07;46.79;102155.06;5088344;28;20055;-57
2022/05/15 04:35:21;;;;;;;6.00;2.80;;;;;;;21.07;46.77;102154.22;5086109;28;20379;-58
2022/05/15 04:37:50;;;;;;;7.80;2.40;;;;;;;21.07;46.96;102155.06;5080651;28;20047;-58
2022/05/15 04:40:19;;;;;;;6.95;3.28;;;;;;;21.08;46.90;102150.50;5084258;28;20047;-59
2022/05/15 04:42:45;;;;;;;6.97;2.70;;;;;;;21.09;47.54;102152.19;5086123;28;20091;-58
2022/05/15 04:45:12;;;;;;;8.90;3.10;;;;;;;21.10;47.42;102156.59;5082842;28;20052;-57
2022/05/15 04:47:39;;;;;;;6.90;2.67;;;;;;;21.10;47.23;102157.44;5084288;28;20039;-57
2022/05/15 04:50:06;;;;;;;11.00;3.00;;;;;;;21.12;47.33;102163.56;5084613;28;20056;-58
2022/05/15 04:52:33;;;;;;;9.65;2.90;;;;;;;21.11;47.36;102169.94;5083753;28;20605;-58
2022/05/15 04:54:59;;;;;;;7.57;3.00;;;;;;;21.13;46.73;102164.41;5085212;28;20131;-57
2022/05/15 04:57:26;;;;;;;6.88;2.88;;;;;;;21.14;47.35;102166.94;5081480;28;20051;-58
2022/05/15 04:59:52;;;;;;;8.38;2.67;;;;;;;21.15;47.13;102165.13;5081097;28;20170;-58
2022/05/15 05:02:19;;;;;;;7.30;2.97;;;;;;;21.16;47.24;102164.97;5085726;28;20066;-58
2022/05/15 05:04:45;;;;;;;7.75;3.03;;;;;;;21.18;47.22;102167.50;5084819;28;20046;-58
2022/05/15 05:07:12;;;;;;;8.27;3.08;;;;;;;21.18;46.59;102160.28;5090113;28;20126;-58
2022/05/15 05:09:39;;;;;;;8.00;3.08;;;;;;;21.20;46.76;102171.78;5084944;28;20040;-58
2022/05/15 05:12:06;;;;;;;7.95;2.90;;;;;;;21.24;46.91;102166.13;5088332;28;20131;-57
2022/05/15 05:14:33;;;;;;;7.95;2.78;;;;;;;21.25;46.71;102174.06;5085989;28;20131;-58
2022/05/15 05:16:59;;;;;;;7.80;2.60;;;;;;;21.25;46.79;102167.81;5088934;28;20363;-57
2022/05/15 05:19:26;;;;;;;5.90;2.58;;;;;;;21.26;46.67;102175.75;5087390;28;20122;-58
2022/05/15 05:21:52;;;;;;;7.38;3.13;;;;;;;21.24;46.96;102166.97;5087795;28;20064;-58
2022/05/15 05:24:19;;;;;;;7.78;2.90;;;;;;;21.24;47.14;102168.81;5084666;28;20047;-59
2022/05/15 05:26:46;;;;;;;7.47;2.92;;;;;;;21.26;46.96;102166.81;5087922;28;20048;-58
2022/05/15 05:29:13;;;;;;;7.85;2.67;;;;;;;21.27;46.83;102168.53;5087744;28;20042;-60
2022/05/15 05:31:46;;;;;;;8.20;2.93;;;;;;;21.25;46.94;102163.25;5086080;28;20098;-60
2022/05/15 05:34:12;;;;;;;9.52;3.22;;;;;;;21.26;46.82;102162.25;5090101;28;20055;-58
2022/05/15 05:36:39;;;;;;;6.68;2.60;;;;;;;21.24;46.92;102161.56;5086244;28;20048;-58
2022/05/15 05:39:06;;;;;;;11.20;2.90;;;;;;;21.24;46.70;102163.41;5083525;28;20067;-58
2022/05/15 05:41:32;;;;;;;5.63;2.33;;;;;;;21.23;47.00;102165.28;5089402;28;20047;-58
2022/05/15 05:44:00;;;;;;;5.75;2.80;;;;;;;21.24;46.71;102163.41;5088736;28;20686;-59
2022/05/15 05:46:27;;;;;;;9.15;2.65;;;;;;;21.23;47.14;102164.38;5086854;28;20041;-58
2022/05/15 05:48:55;;;;;;;7.18;2.35;;;;;;;21.22;46.80;102162.69;5087469;28;20093;-58
2022/05/15 05:51:21;;;;;;;7.65;2.65;;;;;;;21.23;47.25;102159.00;5087719;28;20457;-57
2022/05/15 05:53:48;;;;;;;9.38;3.30;;;;;;;21.20;46.94;102155.59;5083355;28;20430;-57
2022/05/15 05:56:15;;;;;;;7.05;2.95;;;;;;;21.20;47.07;102155.59;5089146;28;20040;-57
2022/05/15 05:58:47;;;;;;;6.57;2.87;;;;;;;21.22;47.16;102157.31;5089179;28;20048;-58
2022/05/15 06:01:14;;;;;;;7.88;2.40;;;;;;;21.20;47.17;102163.69;5084528;28;20040;-58
2022/05/15 06:06:25;;;;;;;4.88;2.58;;;;;;;21.21;46.86;102164.53;5082812;28;20040;-57
2022/05/15 06:08:52;;;;;;;9.18;3.22;;;;;;;21.21;47.25;102161.84;5083433;28;20040;-58
2022/05/15 06:11:18;;;;;;;7.22;2.90;;;;;;;21.23;46.93;102165.28;5084435;28;20114;-58
2022/05/15 06:13:45;;;;;;;8.73;2.95;;;;;;;21.23;47.07;102172.47;5089762;28;20043;-57
2022/05/15 06:16:13;;;;;;;5.00;2.33;;;;;;;21.25;46.91;102165.13;5093306;28;20441;-59
2022/05/15 06:18:40;;;;;;;7.68;2.78;;;;;;;21.24;47.20;102172.34;5090573;28;20096;-57
2022/05/15 06:21:06;;;;;;;6.55;2.28;;;;;;;21.26;47.19;102172.19;5090108;28;20046;-58
2022/05/15 06:23:33;;;;;;;5.90;2.45;;;;;;;21.28;46.92;102170.22;5093099;28;20158;-59
2022/05/15 06:25:59;;;;;;;7.20;2.65;;;;;;;21.28;46.98;102173.78;5085336;28;20048;-58
2022/05/15 06:28:26;;;;;;;8.15;2.65;;;;;;;21.29;46.98;102174.63;5086996;28;20485;-58
2022/05/15 06:30:52;;;;;;;10.45;3.08;;;;;;;21.29;47.18;102178.16;5085045;28;20060;-59
2022/05/15 06:33:19;;;;;;;5.38;2.53;;;;;;;21.30;46.89;102176.31;5088456;28;20062;-57
2022/05/15 06:35:45;;;;;;;6.43;2.30;;;;;;;21.31;46.99;102168.09;5087192;28;20054;-57
2022/05/15 06:38:12;;;;;;;8.05;2.70;;;;;;;21.32;46.62;102167.13;5086372;28;20046;-58
2022/05/15 06:40:39;;;;;;;7.68;2.80;;;;;;;21.34;46.72;102173.22;5086815;28;20044;-58
2022/05/15 06:43:06;;;;;;;9.75;3.17;;;;;;;21.36;46.44;102175.78;5084557;28;20044;-58
2022/05/15 06:45:32;;;;;;;7.00;2.40;;;;;;;21.35;46.86;102164.16;5087417;28;20423;-58
2022/05/15 06:47:59;;;;;;;8.25;3.20;;;;;;;21.37;46.33;102172.09;5079694;28;20047;-57
2022/05/15 06:50:25;;;;;;;8.82;2.88;;;;;;;21.37;46.43;102167.53;5084705;28;20050;-59
2022/05/15 06:52:52;;;;;;;11.85;2.95;;;;;;;21.38;46.44;102171.09;5079999;28;20070;-59
2022/05/15 06:55:22;;;;;;;8.63;2.78;;;;;;;21.38;46.26;102173.78;5083370;28;20044;-57
2022/05/15 06:57:50;;;;;;;9.45;3.05;;;;;;;21.39;46.67;102164.72;5086336;28;20511;-58
2022/05/15 07:00:20;;;;;;;5.28;2.60;;;;;;;21.40;46.50;102166.41;5090889;28;20044;-58
2022/05/15 07:02:47;;;;;;;7.88;3.40;;;;;;;21.41;46.32;102166.25;5092784;28;20040;-58
2022/05/15 07:05:17;;;;;;;7.10;2.88;;;;;;;21.42;46.38;102172.50;5090480;28;20073;-58
2022/05/15 07:07:44;;;;;;;10.27;3.70;;;;;;;21.43;46.38;102174.22;5090194;28;20039;-58
2022/05/15 07:10:13;;;;;;;11.15;3.70;;;;;;;21.44;46.37;102174.06;5090095;28;20062;-58
2022/05/15 07:12:40;;;;;;;9.63;3.58;;;;;;;21.45;46.22;102169.53;5086980;28;20049;-57
2022/05/15 07:15:07;;;;;;;11.73;3.08;;;;;;;21.47;46.05;102169.38;5090685;28;20122;-58
2022/05/15 07:17:34;;;;;;;10.18;3.83;;;;;;;21.48;45.99;102171.94;5085838;28;20465;-58
2022/05/15 07:20:00;;;;;;;13.70;3.45;;;;;;;21.48;46.03;102161.16;5089326;28;20542;-58
2022/05/15 07:22:28;;;;;;;10.85;3.67;;;;;;;21.49;46.21;102164.69;5084033;28;20123;-58
2022/05/15 07:24:54;;;;;;;11.55;3.80;;;;;;;21.49;46.10;102165.53;5085167;28;20063;-58
2022/05/15 07:27:21;;;;;;;10.65;3.65;;;;;;;21.50;45.86;102161.84;5086385;28;20049;-59
2022/05/15 07:29:47;;;;;;;11.27;3.90;;;;;;;21.51;46.04;102162.69;5089509;28;20063;-58
2022/05/15 07:32:14;;;;;;;10.60;3.60;;;;;;;21.53;46.01;102171.50;5090912;28;20050;-58
2022/05/15 07:34:41;;;;;;;10.23;3.67;;;;;;;21.53;46.42;102169.66;5086434;28;20067;-58
2022/05/15 07:37:09;;;;;;;12.82;4.15;;;;;;;21.55;45.94;102170.38;5090895;28;20131;-58
2022/05/15 07:39:35;;;;;;;10.35;3.45;;;;;;;21.55;45.91;102175.78;5092121;28;20032;-58
2022/05/15 07:42:02;;;;;;;8.95;3.55;;;;;;;21.57;45.70;102168.38;5088778;28;20147;-59
2022/05/15 07:44:28;;;;;;;9.35;3.35;;;;;;;21.58;45.93;102166.53;5090420;28;20322;-58
2022/05/15 07:46:55;;;;;;;11.27;3.58;;;;;;;21.58;45.73;102167.38;5087674;28;20138;-58
2022/05/15 07:49:22;;;;;;;11.05;3.78;;;;;;;21.59;45.50;102166.41;5089639;28;20600;-58
2022/05/15 07:51:48;;;;;;;7.93;2.95;;;;;;;21.61;46.06;102166.25;5088032;28;20050;-59
2022/05/15 07:54:16;;;;;;;9.50;3.22;;;;;;;21.61;45.63;102169.78;5088064;28;20040;-59
2022/05/15 07:56:44;;;;;;;9.73;3.70;;;;;;;21.62;45.76;102166.09;5084237;28;20126;-59
2022/05/15 07:59:12;;;;;;;10.65;3.47;;;;;;;21.65;45.72;102164.94;5087891;28;20486;-58
2022/05/15 08:01:39;;;;;;;11.15;3.70;;;;;;;21.66;45.64;102166.66;5085910;28;20052;-58
2022/05/15 08:04:06;;;;;;;16.90;3.80;;;;;;;21.67;45.63;102169.22;5084556;28;20094;-59
2022/05/15 08:09:18;;;;;;;15.43;4.50;;;;;;;21.69;45.83;102161.81;5086472;28;20044;-58
2022/05/15 08:11:45;;;;;;;13.07;4.53;;;;;;;21.72;45.83;102165.22;5090060;28;20127;-58
2022/05/15 08:14:12;;;;;;;18.13;4.10;;;;;;;21.72;45.52;102157.13;5089569;28;20074;-58
2022/05/15 08:16:38;;;;;;;23.95;5.97;;;;;;;21.75;45.50;102159.50;5087816;28;20443;-58
2022/05/15 08:24:40;;;;;;;24.38;6.47;;;;;;;21.78;45.45;102156.53;5083340;28;20135;-57
2022/05/15 08:27:09;;;;;;;24.05;6.03;;;;;;;21.79;45.47;102153.72;5086802;28;20044;-58
2022/05/15 08:29:37;;;;;;;21.48;6.10;;;;;;;21.81;45.67;102150.84;5084042;28;20040;-59
2022/05/15 08:32:05;;;;;;;30.02;7.05;;;;;;;21.82;45.71;102149.84;5085916;28;20171;-59
2022/05/15 08:34:33;;;;;;;27.63;7.32;;;;;;;21.83;45.77;102140.75;5084531;28;20048;-59
2022/05/15 08:37:01;;;;;;;27.98;7.38;;;;;;;21.82;45.76;102137.19;5077957;28;20579;-58
2022/05/15 08:39:29;;;;;;;28.08;7.05;;;;;;;21.83;45.89;102128.13;5069221;28;20127;-59
2022/05/15 08:42:20;;;;;;;26.33;6.88;;;;;;;21.83;45.79;102125.44;5086814;28;20478;-59
2022/05/15 08:44:50;;;;;;;19.42;6.88;;;;;;;21.86;45.64;102114.31;5082039;28;20040;-59
2022/05/15 08:47:22;;;;;;;23.48;5.80;;;;;;;21.88;45.72;102116.88;5086071;28;20077;-58
2022/05/15 08:50:00;;;;;;;32.15;7.50;;;;;;;21.87;45.89;102112.47;5086094;28;20044;-59
2022/05/15 08:52:36;;;;;;;25.63;7.68;;;;;;;21.90;45.69;102114.88;5085179;28;20039;-59
2022/05/15 08:55:06;;;;;;;20.92;7.03;;;;;;;21.89;45.72;102111.31;5086251;28;20046;-59
2022/05/15 08:57:55;;;;;;;22.13;7.53;;;;;;;21.90;45.60;102110.31;5087048;28;20064;-59
2022/05/15 09:00:36;;;;;;;25.35;8.00;;;;;;;21.92;45.26;102110.19;5084872;28;20423;-59
2022/05/15 09:03:14;;;;;;;21.23;8.00;;;;;;;21.93;45.60;102106.47;5080516;28;20174;-58
2022/05/15 09:05:59;;;;;;;19.00;7.95;;;;;;;21.94;45.75;102105.47;5080712;28;20523;-58
2022/05/15 09:08:45;;;;;;;22.73;7.70;;;;;;;21.96;45.68;102108.03;5081143;28;20135;-59
2022/05/15 09:11:15;;;;;;;20.95;7.50;;;;;;;21.97;45.40;102102.47;5082613;28;20040;-59
2022/05/15 09:13:51;;;;;;;21.92;7.05;;;;;;;21.99;45.49;102108.59;5071245;28;20422;-59
2022/05/15 09:16:24;;;;;;;31.00;8.88;;;;;;;22.01;45.48;102103.03;5082430;28;20051;-59
2022/05/15 09:18:51;;;;;;;43.55;10.82;;;;;;;22.03;45.85;102101.91;5076738;28;20045;-59
2022/05/15 09:21:18;;;;;;;26.83;8.48;;;;;;;22.06;45.53;102106.13;5076173;28;20058;-59
2022/05/15 09:23:54;;;;;;;35.83;7.95;;;;;;;22.08;45.36;102104.16;5076064;28;20079;-59
2022/05/15 09:26:29;;;;;;;24.95;8.80;;;;;;;22.10;45.77;102105.69;5079778;28;20134;-60
2022/05/15 09:29:00;;;;;;;30.58;8.27;;;;;;;22.14;45.46;102108.97;5087157;28;20048;-58
2022/05/15 09:31:46;;;;;;;26.67;8.02;;;;;;;22.17;45.50;102101.41;5084913;28;20052;-60
2022/05/15 09:34:19;;;;;;;26.30;8.02;;;;;;;22.22;45.71;102097.41;5068368;28;20113;-59
2022/05/15 09:36:48;;;;;;;23.92;7.18;;;;;;;22.26;45.06;102098.81;5084966;28;20044;-59
2022/05/15 09:39:47;;;;;;;19.25;7.05;;;;;;;22.29;44.86;102099.34;5088788;28;20036;-58
2022/05/15 09:45:21;;;;;;;22.67;7.32;;;;;;;22.37;44.63;102085.09;5087580;28;20424;-58
2022/05/15 09:47:50;;;;;;;18.38;6.40;;;;;;;22.41;44.52;102081.94;5089582;28;20066;-59
2022/05/15 09:50:41;;;;;;;17.75;5.65;;;;;;;22.44;44.33;102075.38;5092325;28;20035;-59
2022/05/15 09:53:38;;;;;;;16.02;5.05;;;;;;;22.48;43.99;102076.78;5092283;28;20054;-60
2022/05/15 09:56:18;;;;;;;17.45;5.53;;;;;;;22.52;43.98;102069.22;5082967;28;20415;-59
2022/05/15 09:58:52;;;;;;;16.38;5.38;;;;;;;22.55;44.03;102080.56;5093462;28;20327;-58
2022/05/15 10:01:25;;;;;;;26.35;5.63;;;;;;;22.58;43.80;102077.53;5091125;28;20036;-59
2022/05/15 10:03:55;;;;;;;17.15;4.90;;;;;;;22.60;43.77;102077.41;5088234;28;20112;-59
2022/05/15 10:06:24;;;;;;;17.02;5.82;;;;;;;22.63;43.78;102072.56;5089714;28;20044;-58
2022/05/15 10:09:09;;;;;;;16.83;5.60;;;;;;;22.66;43.64;102080.31;5086712;28;20039;-59
2022/05/15 10:11:39;;;;;;;15.18;4.60;;;;;;;22.69;43.58;102070.22;5088944;28;20121;-59
2022/05/15 10:14:08;;;;;;;12.00;4.15;;;;;;;22.70;43.18;102063.81;5087200;28;20094;-58
2022/05/15 10:16:46;;;;;;;15.93;4.95;;;;;;;22.71;43.46;102060.94;5086275;28;20131;-59
2022/05/15 10:19:24;;;;;;;16.50;4.75;;;;;;;22.74;43.40;102048.97;5090447;28;20048;-60
2022/05/15 10:21:58;;;;;;;16.75;4.15;;;;;;;22.77;43.20;102054.06;5089994;28;20692;-59
2022/05/15 10:24:30;;;;;;;;;;;;;;;22.79;42.88;102057.47;5086784;28;20441;-60
2022/05/15 10:27:04;;;;;;;10.63;3.80;;;;;;;22.83;42.94;102040.75;5090257;28;20219;-60
2022/05/15 10:29:38;;;;;;;14.68;3.47;;;;;;;22.84;42.49;102045.19;5087648;28;20048;-58
2022/05/15 10:32:39;;;;;;;10.18;3.90;;;;;;;22.86;42.67;102047.72;5084713;28;20074;-58
2022/05/15 10:35:14;;;;;;;16.45;3.78;;;;;;;22.90;42.58;102043.72;5076114;28;20082;-59
2022/05/15 10:37:59;;;;;;;11.68;3.92;;;;;;;22.92;42.85;102043.59;5081548;28;20044;-59
2022/05/15 10:40:48;;;;;;;14.60;3.78;;;;;;;22.94;42.72;102044.28;5087721;28;20048;-58
2022/05/15 10:43:27;;;;;;;10.68;3.08;;;;;;;22.97;42.80;102031.28;5081716;28;20058;-59
2022/05/15 10:46:08;;;;;;;15.00;3.65;;;;;;;22.98;42.54;102035.69;5089267;28;20044;-59
2022/05/15 10:48:59;;;;;;;9.48;3.50;;;;;;;23.01;42.27;102034.53;5089083;28;20055;-59
2022/05/15 10:51:46;;;;;;;10.48;3.05;;;;;;;23.03;42.76;102033.34;5085587;28;20068;-59
2022/05/15 10:57:29;;;;;;;12.82;3.25;;;;;;;23.07;42.09;102032.03;5082702;28;20052;-60
2022/05/15 11:00:02;;;;;;;12.55;3.10;;;;;;;23.06;41.97;102022.22;5085439;28;20067;-59
2022/05/15 11:02:53;;;;;;;15.35;3.28;;;;;;;23.08;42.21;102022.94;5091198;28;20090;-60
2022/05/15 11:05:28;;;;;;;12.85;3.25;;;;;;;23.10;42.32;102023.59;5086880;28;20052;-59
2022/05/15 11:08:05;;;;;;;9.02;2.80;;;;;;;23.11;42.02;102014.47;5088549;28;20054;-59
2022/05/15 11:10:33;;;;;;;10.25;3.28;;;;;;;23.13;42.26;102017.03;5087350;28;20071;-60
2022/05/15 11:13:09;;;;;;;6.90;3.13;;;;;;;23.14;42.15;102013.31;5087515;28;20055;-58
2022/05/15 11:16:05;;;;;;;11.93;2.90;;;;;;;23.15;42.13;102006.91;5087279;28;20449;-59
2022/05/15 11:19:13;;;;;;;10.60;2.85;;;;;;;23.17;41.45;102007.59;5090081;28;20040;-59
2022/05/15 11:21:58;;;;;;;6.40;2.63;;;;;;;23.21;41.29;102018.97;5077608;28;20056;-59
2022/05/15 11:24:32;;;;;;;9.30;2.85;;;;;;;23.22;41.64;102021.50;5085522;28;20642;-59
2022/05/15 11:27:22;;;;;;;8.35;2.30;;;;;;;23.22;41.46;102012.53;5086413;28;20044;-59
2022/05/15 11:29:51;;;;;;;7.70;2.50;;;;;;;23.24;41.16;101997.00;5090088;28;20044;-59
2022/05/15 11:32:46;;;;;;;13.10;3.22;;;;;;;23.25;40.28;101993.28;5083090;28;20148;-59
2022/05/15 11:35:17;;;;;;;5.95;2.22;;;;;;;23.26;41.13;101995.81;5084594;28;20148;-59
2022/05/15 11:37:55;;;;;;;9.82;2.30;;;;;;;23.28;40.23;101987.56;5086270;28;20668;-59
2022/05/15 11:40:42;;;;;;;10.75;2.85;;;;;;;23.29;40.18;101981.13;5083407;28;20490;-60
2022/05/15 11:43:30;;;;;;;9.50;2.97;;;;;;;23.30;40.14;101974.69;5084767;28;20104;-59
2022/05/15 11:45:58;;;;;;;8.07;2.58;;;;;;;23.32;39.63;101978.13;5084218;28;20040;-59
2022/05/15 11:48:51;;;;;;;6.72;2.20;;;;;;;23.32;39.22;101970.84;5083976;28;20674;-59
2022/05/15 11:51:17;;;;;;;10.30;2.08;;;;;;;23.33;39.36;101959.00;5079838;28;20055;-59
2022/05/15 11:53:53;;;;;;;8.73;2.28;;;;;;;23.34;39.62;101965.25;5087785;28;20127;-60
2022/05/15 11:56:51;;;;;;;5.90;1.98;;;;;;;23.35;39.55;101964.25;5081904;28;20308;-60